Time;durP1;ratioP1;P1;durP2;ratioP2;P2;SDS_P1;SDS_P2;PMS_P1;PMS_P2;Temp;Humidity;BMP_temperature;BMP_pressure;BME280_temperature;BME280_humidity;BME280_pressure;Samples;Min_cycle;Max_cycle;Signal;HPM_P1;HPM_P2
2021/01/04 00:01:23;;;;;;;;;;;3.40;99.90;;;;;;5037023;28;19917;-80
2021/01/04 00:03:49;;;;;;;;;;;3.30;99.90;;;;;;5040060;28;20000;-80
2021/01/04 00:06:29;;;;;;;;;;;3.30;99.90;;;;;;5052759;28;20423;-80
2021/01/04 00:09:13;;;;;;;;;;;3.30;99.90;;;;;;5057145;28;20368;-79
2021/01/04 00:11:42;;;;;;;;;;;3.30;99.90;;;;;;5048657;28;19917;-81
2021/01/04 00:14:12;;;;;;;;;;;3.30;99.90;;;;;;5053506;28;19925;-81
2021/01/04 00:16:54;;;;;;;;;;;3.30;99.90;;;;;;5047585;28;19939;-81
2021/01/04 00:19:24;;;;;;;;;;;3.30;99.90;;;;;;5036991;28;20381;-81
2021/01/04 00:22:12;;;;;;;;;;;3.30;99.90;;;;;;5036611;28;19973;-81
2021/01/04 00:24:42;;;;;;;;;;;3.30;99.90;;;;;;5039006;28;20381;-81
2021/01/04 00:27:22;;;;;;;;;;;3.30;99.90;;;;;;5037017;28;19967;-79
2021/01/04 00:29:48;;;;;;;;;;;3.30;99.90;;;;;;5054980;28;19916;-82
2021/01/04 00:32:20;;;;;;;;;;;3.30;99.90;;;;;;5041290;28;19912;-79
2021/01/04 00:34:48;;;;;;;;;;;3.30;99.90;;;;;;5048134;28;19917;-79
2021/01/04 00:37:31;;;;;;;;;;;3.30;99.90;;;;;;5036799;28;20356;-79
2021/01/04 00:40:23;;;;;;;;;;;3.30;99.90;;;;;;5036490;28;19913;-79
2021/01/04 00:42:49;;;;;;;;;;;3.30;99.90;;;;;;5050763;28;19913;-79
2021/01/04 00:45:18;;;;;;;;;;;3.20;99.90;;;;;;5053057;28;19913;-80
2021/01/04 00:47:50;;;;;;;;;;;3.20;99.90;;;;;;5036630;28;20378;-79
2021/01/04 00:50:35;;;;;;;;;;;3.20;99.90;;;;;;5051553;28;19913;-80
2021/01/04 00:53:03;;;;;;;;;;;3.20;99.90;;;;;;5043324;28;20016;-79
2021/01/04 00:55:37;;;;;;;;;;;3.20;99.90;;;;;;5038129;28;19913;-80
2021/01/04 00:58:12;;;;;;;;;;;3.30;99.90;;;;;;5035841;28;19998;-79
2021/01/04 01:00:40;;;;;;;;;;;3.20;99.90;;;;;;5040333;28;19963;-80
2021/01/04 01:03:08;;;;;;;;;;;3.20;99.90;;;;;;5038897;28;19992;-80
2021/01/04 01:05:33;;;;;;;;;;;3.20;99.90;;;;;;5049426;28;20357;-80
2021/01/04 01:08:09;;;;;;;;;;;3.20;99.90;;;;;;5054775;28;20030;-80
2021/01/04 01:10:41;;;;;;;;;;;3.20;99.90;;;;;;5037415;28;19953;-80
2021/01/04 01:13:25;;;;;;;;;;;3.20;99.90;;;;;;5039300;28;19917;-79
2021/01/04 01:16:00;;;;;;;;;;;3.20;99.90;;;;;;5037320;28;20654;-82
2021/01/04 01:18:41;;;;;;;;;;;3.20;99.90;;;;;;5048838;28;19913;-81
2021/01/04 01:21:07;;;;;;;;;;;3.20;99.90;;;;;;5036073;28;19916;-81
2021/01/04 01:23:34;;;;;;;;;;;3.20;99.90;;;;;;5035989;28;19959;-81
2021/01/04 01:26:11;;;;;;;;;;;3.20;99.90;;;;;;5047518;28;20007;-81
2021/01/04 01:28:55;;;;;;;;;;;3.20;99.90;;;;;;5050087;28;19936;-81
2021/01/04 01:31:45;;;;;;;;;;;3.10;99.90;;;;;;5034274;28;19913;-79
2021/01/04 01:34:19;;;;;;;;;;;3.10;99.90;;;;;;5045372;28;19921;-80
2021/01/04 01:36:54;;;;;;;;;;;3.10;99.90;;;;;;5047507;28;19909;-80
2021/01/04 01:39:20;;;;;;;;;;;3.10;99.90;;;;;;5035525;28;19920;-80
2021/01/04 01:42:03;;;;;;;;;;;3.10;99.90;;;;;;5037127;28;19913;-79
2021/01/04 01:44:37;;;;;;;;;;;3.10;99.90;;;;;;5047007;28;19999;-79
2021/01/04 01:47:03;;;;;;;;;;;3.10;99.90;;;;;;5053704;28;19913;-79
2021/01/04 01:49:47;;;;;;;;;;;3.10;99.90;;;;;;5045551;28;19919;-79
2021/01/04 01:52:21;;;;;;;;;;;3.10;99.90;;;;;;5034949;28;19960;-80
2021/01/04 01:54:53;;;;;;;;;;;3.10;99.90;;;;;;5034014;28;19917;-79
2021/01/04 01:57:37;;;;;;;;;;;3.10;99.90;;;;;;5033935;28;19913;-80
2021/01/04 02:00:21;;;;;;;;;;;3.10;99.90;;;;;;5034526;28;19983;-80
2021/01/04 02:02:49;;;;;;;;;;;3.10;99.90;;;;;;5042891;28;19918;-79
2021/01/04 02:05:18;;;;;;;;;;;3.10;99.90;;;;;;5044942;28;19916;-80
2021/01/04 02:07:58;;;;;;;;;;;3.10;99.90;;;;;;5045596;28;19913;-80
2021/01/04 02:10:27;;;;;;;;;;;3.10;99.90;;;;;;5047940;28;20322;-80
2021/01/04 02:12:56;;;;;;;;;;;3.10;99.90;;;;;;5044496;28;20435;-80
2021/01/04 02:15:24;;;;;;;;;;;3.10;99.90;;;;;;5044654;28;19917;-80
2021/01/04 02:18:01;;;;;;;;;;;3.10;99.90;;;;;;5045983;28;19948;-80
2021/01/04 02:20:27;;;;;;;;;;;3.10;99.90;;;;;;5056633;28;19974;-80
2021/01/04 02:22:52;;;;;;;;;;;3.10;99.90;;;;;;5052613;28;19913;-79
2021/01/04 02:25:18;;;;;;;;;;;3.10;99.90;;;;;;5055107;28;19962;-79
2021/01/04 02:27:49;;;;;;;;;;;3.10;99.90;;;;;;5055824;28;19917;-79
2021/01/04 02:30:15;;;;;;;;;;;3.00;99.90;;;;;;5040217;28;20007;-80
2021/01/04 02:32:42;;;;;;;;;;;3.00;99.90;;;;;;5053450;28;19971;-80
2021/01/04 02:35:07;;;;;;;;;;;3.00;99.90;;;;;;5049686;28;19913;-80
2021/01/04 02:37:33;;;;;;;;;;;2.90;99.90;;;;;;5037448;28;20290;-80
2021/01/04 02:39:59;;;;;;;;;;;2.90;99.90;;;;;;5043632;28;19913;-79
2021/01/04 02:42:26;;;;;;;;;;;2.90;99.90;;;;;;5038569;28;19998;-79
2021/01/04 02:44:52;;;;;;;;;;;2.80;99.90;;;;;;5052982;28;19912;-79
2021/01/04 02:47:33;;;;;;;;;;;2.80;99.90;;;;;;5050600;28;20004;-79
2021/01/04 02:50:08;;;;;;;;;;;2.90;99.90;;;;;;5050040;28;19920;-79
2021/01/04 02:52:42;;;;;;;;;;;2.90;99.90;;;;;;5047414;28;20293;-79
2021/01/04 02:55:13;;;;;;;;;;;2.90;99.90;;;;;;5051984;28;20308;-79
2021/01/04 02:57:59;;;;;;;;;;;2.90;99.90;;;;;;5040259;28;19919;-79
2021/01/04 03:00:25;;;;;;;;;;;2.90;99.90;;;;;;5038686;28;20404;-80
2021/01/04 03:02:54;;;;;;;;;;;3.00;99.90;;;;;;5039811;28;19996;-80
2021/01/04 03:05:21;;;;;;;;;;;3.00;99.90;;;;;;5046567;28;19910;-79
2021/01/04 03:07:58;;;;;;;;;;;3.00;99.90;;;;;;5036456;28;19910;-80
2021/01/04 03:10:26;;;;;;;;;;;3.00;99.90;;;;;;5041383;28;19917;-80
2021/01/04 03:13:12;;;;;;;;;;;3.10;99.90;;;;;;5053115;28;19939;-79
2021/01/04 03:15:56;;;;;;;;;;;3.10;99.90;;;;;;5043046;28;19913;-79
2021/01/04 03:18:45;;;;;;;;;;;3.00;99.90;;;;;;5040899;28;19921;-79
2021/01/04 03:21:12;;;;;;;;;;;3.00;99.90;;;;;;5055214;28;19916;-79
2021/01/04 03:23:37;;;;;;;;;;;3.00;99.90;;;;;;5050150;28;19917;-79
2021/01/04 03:26:09;;;;;;;;;;;2.90;99.90;;;;;;5035551;28;19913;-79
2021/01/04 03:28:34;;;;;;;;;;;2.90;99.90;;;;;;5036899;28;20391;-79
2021/01/04 03:31:00;;;;;;;;;;;2.80;99.90;;;;;;5038281;28;19956;-79
2021/01/04 03:33:26;;;;;;;;;;;2.80;99.90;;;;;;5050499;28;19917;-79
2021/01/04 03:35:52;;;;;;;;;;;2.90;99.90;;;;;;5045230;28;20321;-79
2021/01/04 03:38:18;;;;;;;;;;;2.90;99.90;;;;;;5056333;28;19974;-79
2021/01/04 03:40:43;;;;;;;;;;;2.90;99.90;;;;;;5048646;28;20276;-80
2021/01/04 03:43:09;;;;;;;;;;;2.90;99.90;;;;;;5056063;28;19909;-80
2021/01/04 03:45:34;;;;;;;;;;;2.90;99.90;;;;;;5037591;28;19913;-80
2021/01/04 03:48:00;;;;;;;;;;;2.90;99.90;;;;;;5037522;28;19952;-79
2021/01/04 03:50:25;;;;;;;;;;;2.90;99.90;;;;;;5037017;28;20328;-79
2021/01/04 03:52:51;;;;;;;;;;;2.90;99.90;;;;;;5035474;28;19996;-80
2021/01/04 03:55:16;;;;;;;;;;;2.90;99.90;;;;;;5037576;28;19913;-79
2021/01/04 03:57:42;;;;;;;;;;;2.90;99.90;;;;;;5037025;28;19964;-80
2021/01/04 04:00:08;;;;;;;;;;;2.90;99.90;;;;;;5049753;28;19920;-79
2021/01/04 04:02:34;;;;;;;;;;;2.90;99.90;;;;;;5055502;28;19963;-79
2021/01/04 04:05:00;;;;;;;;;;;2.90;99.90;;;;;;5040101;28;19913;-79
2021/01/04 04:07:25;;;;;;;;;;;2.90;99.90;;;;;;5036978;28;19916;-80
2021/01/04 04:09:50;;;;;;;;;;;2.90;99.90;;;;;;5050134;28;19917;-79
2021/01/04 04:12:16;;;;;;;;;;;2.90;99.90;;;;;;5056712;28;19916;-79
2021/01/04 04:14:46;;;;;;;;;;;2.90;99.90;;;;;;5055790;28;19912;-79
2021/01/04 04:17:11;;;;;;;;;;;2.90;99.90;;;;;;5056724;28;19916;-79
2021/01/04 04:19:37;;;;;;;;;;;2.90;99.90;;;;;;5042645;28;19914;-80
2021/01/04 04:22:02;;;;;;;;;;;2.90;99.90;;;;;;5046644;28;19999;-80
2021/01/04 04:24:28;;;;;;;;;;;2.90;99.90;;;;;;5054626;28;19909;-79
2021/01/04 04:26:53;;;;;;;;;;;2.90;99.90;;;;;;5046376;28;19917;-80
2021/01/04 04:29:19;;;;;;;;;;;2.90;99.90;;;;;;5056553;28;19959;-80
2021/01/04 04:31:46;;;;;;;;;;;2.90;99.90;;;;;;5051918;28;20373;-80
2021/01/04 04:34:11;;;;;;;;;;;2.90;99.90;;;;;;5048123;28;19924;-80
2021/01/04 04:36:39;;;;;;;;;;;2.90;99.90;;;;;;5040628;28;20388;-79
2021/01/04 04:39:04;;;;;;;;;;;2.90;99.90;;;;;;5035376;28;19913;-80
2021/01/04 04:41:33;;;;;;;;;;;2.90;99.90;;;;;;5035058;28;19924;-80
2021/01/04 04:44:10;;;;;;;;;;;2.90;99.90;;;;;;5046338;28;19913;-79
2021/01/04 04:46:42;;;;;;;;;;;2.90;99.90;;;;;;5042113;28;20339;-79
2021/01/04 04:49:40;;;;;;;;;;;2.90;99.90;;;;;;5043939;28;20312;-80
2021/01/04 04:52:18;;;;;;;;;;;2.90;99.90;;;;;;5045513;28;19917;-79
2021/01/04 04:54:55;;;;;;;;;;;2.90;99.90;;;;;;5041425;28;19917;-80
2021/01/04 04:57:39;;;;;;;;;;;2.90;99.90;;;;;;5039734;28;20381;-79
2021/01/04 05:00:22;;;;;;;;;;;2.90;99.90;;;;;;5055523;28;20316;-79
2021/01/04 05:02:53;;;;;;;;;;;2.90;99.90;;;;;;5054339;28;20501;-79
2021/01/04 05:05:45;;;;;;;;;;;2.90;99.90;;;;;;5043603;28;19909;-80
2021/01/04 05:08:30;;;;;;;;;;;2.90;99.90;;;;;;5035539;28;20301;-80
2021/01/04 05:10:57;;;;;;;;;;;2.90;99.90;;;;;;5039837;28;20266;-80
2021/01/04 05:13:26;;;;;;;;;;;2.90;99.90;;;;;;5037131;28;19965;-80
2021/01/04 05:16:02;;;;;;;;;;;2.80;99.90;;;;;;5035794;28;20000;-80
2021/01/04 05:18:28;;;;;;;;;;;2.90;99.90;;;;;;5036579;28;19909;-80
2021/01/04 05:21:00;;;;;;;;;;;2.80;99.90;;;;;;5035799;28;19970;-80
2021/01/04 05:23:39;;;;;;;;;;;2.80;99.90;;;;;;5054702;28;19913;-80
2021/01/04 05:26:29;;;;;;;;;;;2.80;99.90;;;;;;5045719;28;19948;-80
2021/01/04 05:29:03;;;;;;;;;;;2.80;99.90;;;;;;5049003;28;19984;-80
2021/01/04 05:31:31;;;;;;;;;;;2.80;99.90;;;;;;5036886;28;19913;-80
2021/01/04 05:34:03;;;;;;;;;;;2.80;99.90;;;;;;5040471;28;19920;-80
2021/01/04 05:36:37;;;;;;;;;;;2.80;99.90;;;;;;5041863;28;19913;-80
2021/01/04 05:39:02;;;;;;;;;;;2.80;99.90;;;;;;5035897;28;20035;-80
2021/01/04 05:41:41;;;;;;;;;;;2.80;99.90;;;;;;5042288;28;20001;-80
2021/01/04 05:44:13;;;;;;;;;;;2.80;99.90;;;;;;5055802;28;20534;-80
2021/01/04 05:46:47;;;;;;;;;;;2.80;99.90;;;;;;5039348;28;19914;-80
2021/01/04 05:49:19;;;;;;;;;;;2.80;99.90;;;;;;5038256;28;19913;-80
2021/01/04 05:51:46;;;;;;;;;;;2.80;99.90;;;;;;5041279;28;19966;-80
2021/01/04 05:54:12;;;;;;;;;;;2.80;99.90;;;;;;5040025;28;19917;-80
2021/01/04 05:56:38;;;;;;;;;;;2.80;99.90;;;;;;5047045;28;19913;-80
2021/01/04 05:59:05;;;;;;;;;;;2.80;99.90;;;;;;5056914;28;19920;-80
2021/01/04 06:01:30;;;;;;;;;;;2.80;99.90;;;;;;5053403;28;19913;-80
2021/01/04 06:03:57;;;;;;;;;;;2.70;99.90;;;;;;5047080;28;19966;-80
2021/01/04 06:06:43;;;;;;;;;;;2.80;99.90;;;;;;5048517;28;19920;-80
2021/01/04 06:09:13;;;;;;;;;;;2.80;99.90;;;;;;5039701;28;19921;-80
2021/01/04 06:11:57;;;;;;;;;;;2.80;99.90;;;;;;5041675;28;19921;-80
2021/01/04 06:14:28;;;;;;;;;;;2.80;99.90;;;;;;5042683;28;20154;-80
2021/01/04 06:16:58;;;;;;;;;;;2.80;99.90;;;;;;5049652;28;19932;-80
2021/01/04 06:19:24;;;;;;;;;;;2.80;99.90;;;;;;5050586;28;20270;-80
2021/01/04 06:21:54;;;;;;;;;;;2.90;99.90;;;;;;5051375;28;19913;-80
2021/01/04 06:24:31;;;;;;;;;;;2.90;99.90;;;;;;5050755;28;20322;-80
2021/01/04 06:26:59;;;;;;;;;;;2.90;99.90;;;;;;5037197;28;19919;-80
2021/01/04 06:29:28;;;;;;;;;;;2.90;99.90;;;;;;5047334;28;20299;-80
2021/01/04 06:31:54;;;;;;;;;;;2.90;99.90;;;;;;5040349;28;19948;-80
2021/01/04 06:34:38;;;;;;;;;;;3.00;99.90;;;;;;5040753;28;19955;-80
2021/01/04 06:37:16;;;;;;;;;;;3.00;99.90;;;;;;5041625;28;19913;-80
2021/01/04 06:39:42;;;;;;;;;;;3.00;99.90;;;;;;5036202;28;19924;-80
2021/01/04 06:42:07;;;;;;;;;;;3.00;99.90;;;;;;5037065;28;19909;-80
2021/01/04 06:44:33;;;;;;;;;;;2.90;99.90;;;;;;5041410;28;19921;-80
2021/01/04 06:47:14;;;;;;;;;;;2.90;99.90;;;;;;5056995;28;19931;-80
2021/01/04 06:49:50;;;;;;;;;;;2.90;99.90;;;;;;5040333;28;19913;-80
2021/01/04 06:52:54;;;;;;;;;;;2.90;99.90;;;;;;5066728;23;20596;-81
2021/01/04 06:55:34;;;;;;;;;;;2.90;99.90;;;;;;5032006;28;19925;-82
2021/01/04 06:58:07;;;;;;;;;;;2.90;99.90;;;;;;5024508;28;19928;-82
2021/01/04 07:00:51;;;;;;;;;;;2.90;99.90;;;;;;5042212;28;19908;-82
2021/01/04 07:03:32;;;;;;;;;;;3.00;99.90;;;;;;5070339;28;19913;-82
2021/01/04 07:06:11;;;;;;;;;;;3.00;99.90;;;;;;5049304;28;20377;-82
2021/01/04 07:08:55;;;;;;;;;;;3.00;99.90;;;;;;5043050;28;19909;-82
2021/01/04 07:11:30;;;;;;;;;;;3.00;99.90;;;;;;5058504;28;19913;-82
2021/01/04 07:14:07;;;;;;;;;;;2.90;99.90;;;;;;5062915;28;19928;-82
2021/01/04 07:16:39;;;;;;;;;;;2.90;99.90;;;;;;5059851;28;19924;-80
2021/01/04 07:19:12;;;;;;;;;;;2.90;99.90;;;;;;5059992;28;19923;-82
2021/01/04 07:21:37;;;;;;;;;;;3.00;99.90;;;;;;5059503;28;19913;-81
2021/01/04 07:24:07;;;;;;;;;;;3.00;99.90;;;;;;5060902;28;19920;-81
2021/01/04 07:26:52;;;;;;;;;;;3.00;99.90;;;;;;5059567;28;19920;-82
2021/01/04 07:29:18;;;;;;;;;;;3.10;99.90;;;;;;5058346;28;19920;-81
2021/01/04 07:32:04;;;;;;;;;;;3.10;99.90;;;;;;5061137;28;19908;-80
2021/01/04 07:34:37;;;;;;;;;;;3.10;99.90;;;;;;5055185;28;20004;-82
2021/01/04 07:37:21;;;;;;;;;;;3.10;99.90;;;;;;5059572;28;19931;-81
2021/01/04 07:39:54;;;;;;;;;;;3.10;99.90;;;;;;5048326;28;19912;-81
2021/01/04 07:42:38;;;;;;;;;;;3.00;99.90;;;;;;5062485;28;19949;-82
2021/01/04 07:45:23;;;;;;;;;;;3.00;99.90;;;;;;5062655;28;19913;-83
2021/01/04 07:48:05;;;;;;;;;;;3.00;99.90;;;;;;5059375;28;20300;-83
2021/01/04 07:50:36;;;;;;;;;;;3.00;99.90;;;;;;5059097;28;19920;-83
2021/01/04 07:53:07;;;;;;;;;;;3.10;99.90;;;;;;5059922;28;19916;-83
2021/01/04 07:55:44;;;;;;;;;;;3.10;99.90;;;;;;5062747;28;19909;-82
2021/01/04 07:58:28;;;;;;;;;;;3.10;99.90;;;;;;5060144;28;19971;-83
2021/01/04 08:01:09;;;;;;;;;;;3.10;99.90;;;;;;5060025;28;19920;-83
2021/01/04 08:03:53;;;;;;;;;;;3.10;99.90;;;;;;5057595;28;19944;-84
2021/01/04 08:06:40;;;;;;;;;;;3.10;99.90;;;;;;5045961;28;19955;-83
2021/01/04 08:09:24;;;;;;;;;;;3.10;99.90;;;;;;5059304;28;19929;-83
2021/01/04 08:12:06;;;;;;;;;;;3.10;99.90;;;;;;5059264;28;19999;-83
2021/01/04 08:14:48;;;;;;;;;;;3.10;99.90;;;;;;5058470;28;19923;-83
2021/01/04 08:17:14;;;;;;;;;;;3.10;99.90;;;;;;5060515;28;19950;-83
2021/01/04 08:19:41;;;;;;;;;;;3.20;99.90;;;;;;5051805;28;20288;-83
2021/01/04 08:22:09;;;;;;;;;;;3.20;99.90;;;;;;5061422;28;19916;-83
2021/01/04 08:24:37;;;;;;;;;;;3.20;99.90;;;;;;5054282;28;19917;-83
2021/01/04 08:27:11;;;;;;;;;;;3.20;99.90;;;;;;5059499;28;19912;-82
2021/01/04 08:29:41;;;;;;;;;;;3.20;99.90;;;;;;5058195;28;19920;-83
2021/01/04 08:32:06;;;;;;;;;;;3.20;99.90;;;;;;5059717;28;19912;-83
2021/01/04 08:34:39;;;;;;;;;;;3.20;99.90;;;;;;5057186;28;19936;-83
2021/01/04 08:37:05;;;;;;;;;;;3.20;99.90;;;;;;5054038;28;19928;-83
2021/01/04 08:39:51;;;;;;;;;;;3.30;99.90;;;;;;5058529;28;20296;-83
2021/01/04 08:42:20;;;;;;;;;;;3.30;99.90;;;;;;5053294;28;19912;-83
2021/01/04 08:45:13;;;;;;;;;;;3.30;99.90;;;;;;5058352;28;20304;-83
2021/01/04 08:47:51;;;;;;;;;;;3.30;99.90;;;;;;5059927;28;19909;-82
2021/01/04 08:50:22;;;;;;;;;;;3.30;99.90;;;;;;5058920;28;19912;-83
2021/01/04 08:52:53;;;;;;;;;;;3.40;99.90;;;;;;5057471;28;19921;-83
2021/01/04 08:55:32;;;;;;;;;;;3.40;99.90;;;;;;5056355;28;19917;-83
2021/01/04 08:58:00;;;;;;;;;;;3.40;99.90;;;;;;5052565;28;20476;-83
2021/01/04 09:00:28;;;;;;;;;;;3.40;99.90;;;;;;5058980;28;20085;-83
2021/01/04 09:02:54;;;;;;;;;;;3.40;99.90;;;;;;5057333;28;19917;-83
2021/01/04 09:05:38;;;;;;;;;;;3.40;99.90;;;;;;5052834;28;20043;-83
2021/01/04 09:08:04;;;;;;;;;;;3.40;99.90;;;;;;5055991;28;19913;-82
2021/01/04 09:10:46;;;;;;;;;;;3.40;99.90;;;;;;5053288;28;20288;-82
2021/01/04 09:13:21;;;;;;;;;;;3.40;99.90;;;;;;5055900;28;19959;-82
2021/01/04 09:15:47;;;;;;;;;;;3.40;99.90;;;;;;5051981;28;19963;-81
2021/01/04 09:18:51;;;;;;;;;;;3.40;99.90;;;;;;5052592;28;19913;-83
2021/01/04 09:21:24;;;;;;;;;;;3.40;99.90;;;;;;5017967;28;19913;-83
2021/01/04 09:23:50;;;;;;;;;;;3.40;99.90;;;;;;5036688;28;20432;-83
2021/01/04 09:26:36;;;;;;;;;;;3.40;99.90;;;;;;5036862;28;19913;-82
2021/01/04 09:29:01;;;;;;;;;;;3.40;99.90;;;;;;5057807;28;19913;-83
2021/01/04 09:31:27;;;;;;;;;;;3.40;99.90;;;;;;5061139;28;19909;-83
2021/01/04 09:33:52;;;;;;;;;;;3.40;99.90;;;;;;5057218;28;19925;-83
2021/01/04 09:36:19;;;;;;;;;;;3.40;99.90;;;;;;5057725;28;19913;-82
2021/01/04 09:38:45;;;;;;;;;;;3.40;99.90;;;;;;5057025;28;19917;-83
2021/01/04 09:41:11;;;;;;;;;;;3.50;99.90;;;;;;5058715;28;20391;-81
2021/01/04 09:43:37;;;;;;;;;;;3.40;99.90;;;;;;5072706;28;20415;-83
2021/01/04 09:46:09;;;;;;;;;;;3.50;99.90;;;;;;5055068;28;19948;-82
2021/01/04 09:48:55;;;;;;;;;;;3.50;99.90;;;;;;5051663;28;19916;-81
2021/01/04 09:51:27;;;;;;;;;;;3.50;99.90;;;;;;5045409;28;20366;-83
2021/01/04 09:53:56;;;;;;;;;;;3.50;99.90;;;;;;5055757;28;19917;-83
2021/01/04 09:56:26;;;;;;;;;;;3.50;99.90;;;;;;5057305;28;19941;-84
2021/01/04 09:58:58;;;;;;;;;;;3.50;99.90;;;;;;5057798;28;20020;-83
2021/01/04 10:01:26;;;;;;;;;;;3.50;99.90;;;;;;5057266;28;20426;-84
2021/01/04 10:04:00;;;;;;;;;;;3.50;99.90;;;;;;5045203;28;19913;-82
2021/01/04 10:06:29;;;;;;;;;;;3.50;99.90;;;;;;5053849;28;19913;-85
2021/01/04 10:08:54;;;;;;;;;;;3.50;99.90;;;;;;5055259;28;19912;-83
2021/01/04 10:11:21;;;;;;;;;;;3.50;99.90;;;;;;5040560;28;19920;-82
2021/01/04 10:13:47;;;;;;;;;;;3.50;99.90;;;;;;5053714;28;20004;-83
2021/01/04 10:16:14;;;;;;;;;;;3.50;99.90;;;;;;5055022;28;19913;-84
2021/01/04 10:19:00;;;;;;;;;;;3.50;99.90;;;;;;5057770;28;19916;-83
2021/01/04 10:21:28;;;;;;;;;;;3.60;99.90;;;;;;5045293;28;19917;-84
2021/01/04 10:23:59;;;;;;;;;;;3.60;99.90;;;;;;5057473;28;19921;-83
2021/01/04 10:26:25;;;;;;;;;;;3.60;99.90;;;;;;5052430;28;20000;-82
2021/01/04 10:28:51;;;;;;;;;;;3.70;99.90;;;;;;5057126;28;19945;-84
2021/01/04 10:31:24;;;;;;;;;;;3.70;99.90;;;;;;5053893;28;19912;-83
2021/01/04 10:34:01;;;;;;;;;;;3.70;99.90;;;;;;5051611;28;19935;-84
2021/01/04 10:36:27;;;;;;;;;;;3.80;99.90;;;;;;5052728;28;19916;-84
2021/01/04 10:38:57;;;;;;;;;;;3.80;99.90;;;;;;5048496;28;20902;-84
2021/01/04 10:41:25;;;;;;;;;;;3.80;99.90;;;;;;5050544;28;19963;-83
2021/01/04 10:43:51;;;;;;;;;;;3.70;99.90;;;;;;5058418;28;19953;-84
2021/01/04 10:46:20;;;;;;;;;;;3.70;99.90;;;;;;5057238;28;19913;-83
2021/01/04 10:48:57;;;;;;;;;;;3.60;99.90;;;;;;5058625;28;20332;-82
2021/01/04 10:51:23;;;;;;;;;;;3.60;99.90;;;;;;5053464;28;19992;-83
2021/01/04 10:53:49;;;;;;;;;;;3.60;99.90;;;;;;5044568;28;19917;-83
2021/01/04 10:56:14;;;;;;;;;;;3.60;99.90;;;;;;5056141;28;19917;-83
2021/01/04 10:58:46;;;;;;;;;;;3.60;99.90;;;;;;5050809;28;19956;-84
2021/01/04 11:01:22;;;;;;;;;;;3.70;99.90;;;;;;5056257;28;20003;-84
2021/01/04 11:03:55;;;;;;;;;;;3.70;99.90;;;;;;5057595;28;19908;-84
2021/01/04 11:06:25;;;;;;;;;;;3.70;99.90;;;;;;5056606;28;19991;-84
2021/01/04 11:08:51;;;;;;;;;;;3.70;99.90;;;;;;5053157;28;19920;-84
2021/01/04 11:11:25;;;;;;;;;;;3.70;99.90;;;;;;5056370;28;19916;-84
2021/01/04 11:13:51;;;;;;;;;;;3.70;99.90;;;;;;5059334;28;19917;-85
2021/01/04 11:16:18;;;;;;;;;;;3.80;99.90;;;;;;5058000;28;19919;-83
2021/01/04 11:18:44;;;;;;;;;;;3.70;99.90;;;;;;5059096;28;19909;-85
2021/01/04 11:21:10;;;;;;;;;;;3.80;99.90;;;;;;5066178;28;19967;-84
2021/01/04 11:23:35;;;;;;;;;;;3.70;99.90;;;;;;5059139;28;19913;-84
2021/01/04 11:26:01;;;;;;;;;;;3.80;99.90;;;;;;5057419;28;20339;-83
2021/01/04 11:28:26;;;;;;;;;;;3.80;99.90;;;;;;5059145;28;19920;-83
2021/01/04 11:30:52;;;;;;;;;;;3.80;99.90;;;;;;5059923;28;19916;-84
2021/01/04 11:33:19;;;;;;;;;;;3.90;99.90;;;;;;5059283;28;19976;-83
2021/01/04 11:35:45;;;;;;;;;;;3.80;99.90;;;;;;5052989;28;20328;-84
2021/01/04 11:38:11;;;;;;;;;;;3.90;99.90;;;;;;5049893;28;19913;-83
2021/01/04 11:40:36;;;;;;;;;;;3.90;99.90;;;;;;5060854;28;19913;-83
2021/01/04 11:43:02;;;;;;;;;;;4.00;99.90;;;;;;5058911;28;19913;-83
2021/01/04 11:45:27;;;;;;;;;;;4.00;99.90;;;;;;5056531;28;19908;-83
2021/01/04 11:47:53;;;;;;;;;;;4.10;99.90;;;;;;5058643;28;19908;-84
2021/01/04 11:50:18;;;;;;;;;;;4.10;99.90;;;;;;5054496;28;19909;-84
2021/01/04 11:52:44;;;;;;;;;;;4.10;99.90;;;;;;5058014;28;19927;-82
2021/01/04 11:55:13;;;;;;;;;;;4.10;99.90;;;;;;5052874;28;19948;-83
2021/01/04 11:57:39;;;;;;;;;;;4.10;99.90;;;;;;5068985;28;20391;-84
2021/01/04 12:00:08;;;;;;;;;;;4.10;99.90;;;;;;5060745;28;20011;-82
2021/01/04 12:02:34;;;;;;;;;;;4.10;99.90;;;;;;5054989;28;19935;-84
2021/01/04 12:04:59;;;;;;;;;;;4.10;99.90;;;;;;5046290;28;19913;-84
2021/01/04 12:07:25;;;;;;;;;;;4.10;99.90;;;;;;5058563;28;20376;-84
2021/01/04 12:09:50;;;;;;;;;;;4.10;99.90;;;;;;5057567;28;19913;-84
2021/01/04 12:12:16;;;;;;;;;;;4.10;99.90;;;;;;5056129;28;19919;-84
2021/01/04 12:14:41;;;;;;;;;;;4.20;99.90;;;;;;5056769;28;19925;-83
2021/01/04 12:17:08;;;;;;;;;;;4.20;99.90;;;;;;5056238;28;20304;-84
2021/01/04 12:19:34;;;;;;;;;;;4.10;99.90;;;;;;5046814;28;19916;-83
2021/01/04 12:22:00;;;;;;;;;;;4.10;99.90;;;;;;5056195;28;19917;-83
2021/01/04 12:24:26;;;;;;;;;;;4.10;99.90;;;;;;5058477;28;19909;-82
2021/01/04 12:26:51;;;;;;;;;;;4.10;99.90;;;;;;5056002;28;19967;-83
2021/01/04 12:29:18;;;;;;;;;;;4.10;99.90;;;;;;5055242;28;19917;-84
2021/01/04 12:31:46;;;;;;;;;;;4.10;99.90;;;;;;5058135;28;20349;-84
2021/01/04 12:34:12;;;;;;;;;;;4.00;99.90;;;;;;5058403;28;20374;-84
2021/01/04 12:36:37;;;;;;;;;;;4.10;99.90;;;;;;5055534;28;19935;-84
2021/01/04 12:39:03;;;;;;;;;;;4.00;99.90;;;;;;5049884;28;20285;-83
2021/01/04 12:41:35;;;;;;;;;;;4.00;99.90;;;;;;5047620;28;19960;-84
2021/01/04 12:44:00;;;;;;;;;;;4.00;99.90;;;;;;5059507;28;20293;-83
2021/01/04 12:46:25;;;;;;;;;;;4.10;99.90;;;;;;5060655;28;19923;-84
2021/01/04 12:48:51;;;;;;;;;;;4.10;99.90;;;;;;5059332;28;20297;-84
2021/01/04 12:51:16;;;;;;;;;;;4.00;99.90;;;;;;5053656;28;20025;-83
2021/01/04 12:53:42;;;;;;;;;;;4.00;99.90;;;;;;5048890;28;19917;-83
2021/01/04 12:56:07;;;;;;;;;;;4.00;99.90;;;;;;5051104;28;19936;-83
2021/01/04 12:58:33;;;;;;;;;;;4.00;99.90;;;;;;5056702;28;19913;-84
2021/01/04 13:00:59;;;;;;;;;;;4.00;99.90;;;;;;5056294;28;20000;-83
2021/01/04 13:03:24;;;;;;;;;;;4.10;99.90;;;;;;5055469;28;19917;-84
2021/01/04 13:05:50;;;;;;;;;;;4.00;99.90;;;;;;5043337;28;19947;-84
2021/01/04 13:08:15;;;;;;;;;;;4.00;99.90;;;;;;5045021;28;19913;-83
2021/01/04 13:10:41;;;;;;;;;;;4.00;99.90;;;;;;5056145;28;19966;-83
2021/01/04 13:13:06;;;;;;;;;;;4.00;99.90;;;;;;5055171;28;19919;-84
2021/01/04 13:15:32;;;;;;;;;;;4.00;99.90;;;;;;5056362;28;19978;-84
2021/01/04 13:17:57;;;;;;;;;;;3.90;99.90;;;;;;5056505;28;20062;-83
2021/01/04 13:20:23;;;;;;;;;;;3.90;99.90;;;;;;5057372;28;20455;-84
2021/01/04 13:22:48;;;;;;;;;;;4.00;99.90;;;;;;5056611;28;19936;-84
2021/01/04 13:25:14;;;;;;;;;;;4.00;99.90;;;;;;5055115;28;19913;-83
2021/01/04 13:27:39;;;;;;;;;;;4.00;99.90;;;;;;5056013;28;19913;-84
2021/01/04 13:30:05;;;;;;;;;;;4.00;99.90;;;;;;5054252;28;19913;-83
2021/01/04 13:32:31;;;;;;;;;;;3.90;99.90;;;;;;5053822;28;19917;-84
2021/01/04 13:34:56;;;;;;;;;;;3.90;99.90;;;;;;5057147;28;19990;-83
2021/01/04 13:37:22;;;;;;;;;;;3.90;99.90;;;;;;5055161;28;20392;-83
2021/01/04 13:39:47;;;;;;;;;;;3.80;99.90;;;;;;5056963;28;19909;-84
2021/01/04 13:42:14;;;;;;;;;;;3.80;99.90;;;;;;5053659;28;19919;-83
2021/01/04 13:44:40;;;;;;;;;;;3.90;99.90;;;;;;5053682;28;19913;-83
2021/01/04 13:47:07;;;;;;;;;;;3.90;99.90;;;;;;5052866;28;19913;-85
2021/01/04 13:49:33;;;;;;;;;;;3.90;99.90;;;;;;5056158;28;19916;-84
2021/01/04 13:51:58;;;;;;;;;;;3.90;99.90;;;;;;5054452;28;20434;-83
2021/01/04 13:54:24;;;;;;;;;;;3.90;99.90;;;;;;5056151;28;19927;-82
2021/01/04 13:56:50;;;;;;;;;;;4.00;99.90;;;;;;5055105;28;19944;-83
2021/01/04 13:59:16;;;;;;;;;;;4.10;99.90;;;;;;5059361;28;19908;-83
2021/01/04 14:01:42;;;;;;;;;;;4.00;99.90;;;;;;5056840;28;19966;-83
2021/01/04 14:04:11;;;;;;;;;;;4.00;99.90;;;;;;5056006;28;19913;-82
2021/01/04 14:06:41;;;;;;;;;;;4.00;99.90;;;;;;5037052;28;20400;-83
2021/01/04 14:09:07;;;;;;;;;;;4.00;99.90;;;;;;5048056;28;19913;-85
2021/01/04 14:11:32;;;;;;;;;;;4.00;99.90;;;;;;5057394;28;19944;-83
2021/01/04 14:13:58;;;;;;;;;;;4.10;99.90;;;;;;5055897;28;19921;-83
2021/01/04 14:16:26;;;;;;;;;;;4.10;99.90;;;;;;5057949;28;19908;-83
2021/01/04 14:18:53;;;;;;;;;;;4.10;99.90;;;;;;5060185;28;19913;-84
2021/01/04 14:21:18;;;;;;;;;;;4.10;99.90;;;;;;5061658;28;19999;-83
2021/01/04 14:23:45;;;;;;;;;;;4.10;99.90;;;;;;5059930;28;20367;-82
2021/01/04 14:26:10;;;;;;;;;;;4.10;99.90;;;;;;5060888;28;19909;-83
2021/01/04 14:28:36;;;;;;;;;;;4.10;99.90;;;;;;5060892;28;19921;-82
2021/01/04 14:31:01;;;;;;;;;;;4.10;99.90;;;;;;5060773;28;19916;-83
2021/01/04 14:33:27;;;;;;;;;;;4.20;99.90;;;;;;5061375;28;19916;-83
2021/01/04 14:35:53;;;;;;;;;;;4.20;99.90;;;;;;5060547;28;19912;-83
2021/01/04 14:38:18;;;;;;;;;;;4.20;99.90;;;;;;5061170;28;20436;-83
2021/01/04 14:40:44;;;;;;;;;;;4.20;99.90;;;;;;5061756;28;19913;-84
2021/01/04 14:43:09;;;;;;;;;;;4.20;99.90;;;;;;5061098;28;20243;-83
2021/01/04 14:45:35;;;;;;;;;;;4.30;99.90;;;;;;5060855;28;19916;-83
2021/01/04 14:48:01;;;;;;;;;;;4.30;99.90;;;;;;5061431;28;19913;-84
2021/01/04 14:50:26;;;;;;;;;;;4.30;99.90;;;;;;5061347;28;20019;-83
2021/01/04 14:52:52;;;;;;;;;;;4.30;99.90;;;;;;5060518;28;19947;-83